Time;durP1;ratioP1;P1;durP2;ratioP2;P2;SDS_P1;SDS_P2;PMS_P1;PMS_P2;Temp;Humidity;BMP_temperature;BMP_pressure;BME280_temperature;BME280_humidity;BME280_pressure;Samples;Min_cycle;Max_cycle;Signal;HPM_P1;HPM_P2
2021/04/14 00:00:55;;;;;;;28.17;16.67;;;;;;;;;;5082409;28;20067;-80
2021/04/14 00:03:22;;;;;;;30.47;17.47;;;;;;;;;;5083145;28;20013;-80
2021/04/14 00:05:47;;;;;;;31.50;16.47;;;;;;;;;;5050638;28;20017;-80
2021/04/14 00:08:13;;;;;;;30.17;17.80;;;;;;;;;;5050413;28;20083;-80
2021/04/14 00:10:39;;;;;;;28.43;16.20;;;;;;;;;;5050401;28;20013;-80
2021/04/14 00:13:05;;;;;;;32.30;18.97;;;;;;;;;;5050543;28;20476;-80
2021/04/14 00:15:34;;;;;;;30.40;17.60;;;;;;;;;;5049745;28;20095;-80
2021/04/14 00:17:59;;;;;;;30.03;17.47;;;;;;;;;;5051157;28;20063;-80
2021/04/14 00:20:24;;;;;;;27.70;14.97;;;;;;;;;;5082455;28;20048;-80
2021/04/14 00:22:49;;;;;;;31.33;15.97;;;;;;;;;;5050200;28;20095;-80
2021/04/14 00:25:16;;;;;;;27.33;16.03;;;;;;;;;;5080468;28;20670;-80
2021/04/14 00:27:42;;;;;;;27.13;15.77;;;;;;;;;;5084224;28;20209;-80
2021/04/14 00:30:08;;;;;;;25.60;15.07;;;;;;;;;;5051662;28;20029;-80
2021/04/14 00:32:33;;;;;;;26.07;14.83;;;;;;;;;;5084201;28;20024;-80
2021/04/14 00:34:58;;;;;;;28.73;16.60;;;;;;;;;;5052189;28;20396;-80
2021/04/14 00:37:24;;;;;;;31.00;16.67;;;;;;;;;;5050795;28;20384;-80
2021/04/14 00:39:49;;;;;;;28.97;15.57;;;;;;;;;;5051308;28;20043;-80
2021/04/14 00:42:14;;;;;;;29.57;17.07;;;;;;;;;;5084107;28;20018;-80
2021/04/14 00:44:39;;;;;;;33.13;16.83;;;;;;;;;;5051752;28;20027;-80
2021/04/14 00:47:05;;;;;;;28.13;16.03;;;;;;;;;;5050685;28;20021;-80
2021/04/14 00:49:30;;;;;;;28.43;16.33;;;;;;;;;;5050582;28;20063;-80
2021/04/14 00:51:55;;;;;;;28.77;16.07;;;;;;;;;;5051706;28;20013;-80
2021/04/14 00:54:20;;;;;;;26.57;15.93;;;;;;;;;;5051712;28;20013;-80
2021/04/14 00:56:45;;;;;;;23.33;14.97;;;;;;;;;;5051673;28;20571;-80
2021/04/14 00:59:11;;;;;;;26.47;14.70;;;;;;;;;;5051702;28;20104;-80
2021/04/14 01:01:36;;;;;;;25.37;15.13;;;;;;;;;;5051329;28;20021;-80
2021/04/14 01:04:01;;;;;;;23.90;13.80;;;;;;;;;;5051850;28;20021;-80
2021/04/14 01:06:28;;;;;;;29.83;14.60;;;;;;;;;;5051357;28;20040;-80
2021/04/14 01:08:53;;;;;;;25.77;13.30;;;;;;;;;;5083797;28;20404;-80
2021/04/14 01:11:19;;;;;;;23.43;14.13;;;;;;;;;;5052097;28;20028;-80
2021/04/14 01:13:45;;;;;;;24.80;13.40;;;;;;;;;;5051519;28;20029;-80
2021/04/14 01:16:10;;;;;;;22.23;12.80;;;;;;;;;;5083564;28;20018;-80
2021/04/14 01:18:36;;;;;;;27.33;12.83;;;;;;;;;;5051792;28;20021;-80
2021/04/14 01:21:03;;;;;;;19.87;12.50;;;;;;;;;;5087338;28;20476;-80
2021/04/14 01:23:30;;;;;;;21.43;13.07;;;;;;;;;;5055391;28;20354;-80
2021/04/14 01:25:55;;;;;;;24.47;14.53;;;;;;;;;;5054936;28;20096;-80
2021/04/14 01:28:25;;;;;;;26.57;15.23;;;;;;;;;;5055454;28;20053;-80
2021/04/14 01:30:52;;;;;;;30.77;15.03;;;;;;;;;;5087103;28;20103;-80
2021/04/14 01:33:18;;;;;;;33.77;15.37;;;;;;;;;;5053912;28;20108;-80
2021/04/14 01:35:43;;;;;;;28.67;15.67;;;;;;;;;;5055053;28;20048;-80
2021/04/14 01:38:08;;;;;;;27.33;15.07;;;;;;;;;;5054490;28;20025;-80
2021/04/14 01:40:34;;;;;;;22.87;14.43;;;;;;;;;;5055056;28;20032;-80
2021/04/14 01:42:59;;;;;;;25.70;14.70;;;;;;;;;;5087677;28;20046;-80
2021/04/14 01:45:27;;;;;;;24.93;15.10;;;;;;;;;;5055002;28;20020;-80
2021/04/14 01:47:52;;;;;;;21.63;13.30;;;;;;;;;;5087335;28;20086;-80
2021/04/14 01:50:18;;;;;;;25.20;14.13;;;;;;;;;;5087510;28;20469;-80
2021/04/14 01:52:43;;;;;;;22.33;13.97;;;;;;;;;;5087299;28;20009;-80
2021/04/14 01:55:08;;;;;;;23.20;13.63;;;;;;;;;;5054616;28;20095;-80
2021/04/14 01:57:34;;;;;;;22.73;13.20;;;;;;;;;;5055004;28;20012;-80
2021/04/14 01:59:59;;;;;;;24.90;13.90;;;;;;;;;;5053192;28;20084;-80
2021/04/14 02:02:24;;;;;;;22.93;14.57;;;;;;;;;;5054980;28;20013;-80
2021/04/14 02:04:50;;;;;;;32.60;17.87;;;;;;;;;;5046345;28;20025;-80
2021/04/14 02:07:15;;;;;;;59.83;18.47;;;;;;;;;;5054506;28;20041;-80
2021/04/14 02:09:40;;;;;;;26.57;17.33;;;;;;;;;;5054488;28;20100;-80
2021/04/14 02:12:06;;;;;;;28.53;17.70;;;;;;;;;;5053267;28;20388;-80
2021/04/14 02:14:31;;;;;;;31.33;17.37;;;;;;;;;;5054524;28;20539;-80
2021/04/14 02:16:57;;;;;;;31.33;18.00;;;;;;;;;;5052887;28;20028;-80
2021/04/14 02:19:22;;;;;;;28.57;17.00;;;;;;;;;;5053309;28;20052;-80
2021/04/14 02:21:47;;;;;;;33.87;16.40;;;;;;;;;;5054227;28;20023;-80
2021/04/14 02:24:12;;;;;;;30.50;16.37;;;;;;;;;;5052976;28;20060;-80
2021/04/14 02:26:37;;;;;;;29.47;16.77;;;;;;;;;;5053230;28;20316;-80
2021/04/14 02:29:03;;;;;;;29.07;17.30;;;;;;;;;;5052639;28;20029;-80
2021/04/14 02:31:31;;;;;;;30.67;16.87;;;;;;;;;;5052550;28;20021;-80
2021/04/14 02:34:00;;;;;;;33.27;17.67;;;;;;;;;;5052977;28;20028;-80
2021/04/14 02:36:25;;;;;;;29.93;16.83;;;;;;;;;;5052807;28;20533;-80
2021/04/14 02:38:51;;;;;;;29.33;16.67;;;;;;;;;;5054133;28;20091;-80
2021/04/14 02:41:16;;;;;;;30.83;17.00;;;;;;;;;;5053848;28;20009;-80
2021/04/14 02:43:41;;;;;;;29.43;17.43;;;;;;;;;;5054177;28;20053;-80
2021/04/14 02:46:06;;;;;;;29.53;16.80;;;;;;;;;;5053773;28;20040;-80
2021/04/14 02:48:32;;;;;;;30.07;17.03;;;;;;;;;;5054215;28;20020;-80
2021/04/14 02:50:57;;;;;;;26.87;15.60;;;;;;;;;;5052565;28;20098;-80
2021/04/14 02:53:22;;;;;;;32.63;16.20;;;;;;;;;;5053778;28;20027;-80
2021/04/14 02:55:47;;;;;;;27.37;15.77;;;;;;;;;;5053943;28;20115;-80
2021/04/14 02:58:12;;;;;;;25.80;15.53;;;;;;;;;;5054279;28;20017;-80
2021/04/14 03:00:38;;;;;;;25.47;14.40;;;;;;;;;;5052438;28;20029;-80
2021/04/14 03:03:03;;;;;;;20.47;13.43;;;;;;;;;;5053372;28;20519;-81
2021/04/14 03:05:31;;;;;;;29.10;14.73;;;;;;;;;;5052216;28;20021;-80
2021/04/14 03:07:56;;;;;;;22.40;13.90;;;;;;;;;;5051969;28;20016;-80
2021/04/14 03:10:22;;;;;;;26.07;13.47;;;;;;;;;;5052087;28;20401;-80
2021/04/14 03:12:47;;;;;;;26.20;14.40;;;;;;;;;;5053434;28;20366;-80
2021/04/14 03:15:13;;;;;;;24.90;14.07;;;;;;;;;;5053277;28;20120;-80
2021/04/14 03:17:39;;;;;;;29.40;14.63;;;;;;;;;;5053458;28;20079;-80
2021/04/14 03:20:06;;;;;;;27.40;14.33;;;;;;;;;;5052775;28;20536;-80
2021/04/14 03:22:32;;;;;;;23.43;13.40;;;;;;;;;;5053290;28;20020;-80
2021/04/14 03:24:57;;;;;;;24.03;13.63;;;;;;;;;;5053617;28;20029;-80
2021/04/14 03:27:22;;;;;;;27.43;13.80;;;;;;;;;;5053358;28;20051;-80
2021/04/14 03:29:48;;;;;;;27.73;13.43;;;;;;;;;;5053214;28;20059;-80
2021/04/14 03:32:13;;;;;;;21.23;13.10;;;;;;;;;;5053143;28;20377;-80
2021/04/14 03:34:38;;;;;;;23.17;13.33;;;;;;;;;;5051859;28;20025;-80
2021/04/14 03:37:03;;;;;;;23.67;13.93;;;;;;;;;;5051551;28;20031;-81
2021/04/14 03:39:28;;;;;;;20.20;12.40;;;;;;;;;;5051286;28;20017;-80
2021/04/14 03:41:53;;;;;;;26.43;13.53;;;;;;;;;;5084596;28;20078;-81
2021/04/14 03:44:19;;;;;;;24.83;14.13;;;;;;;;;;5050925;28;20020;-80
2021/04/14 03:46:44;;;;;;;23.57;14.67;;;;;;;;;;5051710;28;20375;-80
2021/04/14 03:49:09;;;;;;;28.30;13.93;;;;;;;;;;5051386;28;20115;-80
2021/04/14 03:51:36;;;;;;;23.97;13.93;;;;;;;;;;5052847;28;20024;-80
2021/04/14 03:54:01;;;;;;;23.70;13.87;;;;;;;;;;5051271;28;20124;-80
2021/04/14 03:56:26;;;;;;;23.73;14.20;;;;;;;;;;5051404;28;20084;-80
2021/04/14 03:58:53;;;;;;;21.13;12.33;;;;;;;;;;5051309;28;20071;-80
2021/04/14 04:01:24;;;;;;;21.73;13.20;;;;;;;;;;5050985;28;20013;-80
2021/04/14 04:03:52;;;;;;;23.33;12.07;;;;;;;;;;5052328;28;20364;-80
2021/04/14 04:06:18;;;;;;;23.90;12.50;;;;;;;;;;5052417;28;20024;-80
2021/04/14 04:08:43;;;;;;;23.00;12.20;;;;;;;;;;5051420;28;20013;-80
2021/04/14 04:11:09;;;;;;;20.47;12.00;;;;;;;;;;5050907;28;20017;-80
2021/04/14 04:13:34;;;;;;;24.53;12.80;;;;;;;;;;5051184;28;20028;-80
2021/04/14 04:16:00;;;;;;;24.03;12.60;;;;;;;;;;5052528;28;20025;-80
2021/04/14 04:18:25;;;;;;;22.97;12.80;;;;;;;;;;5052356;28;20021;-80
2021/04/14 04:20:50;;;;;;;28.77;12.63;;;;;;;;;;5052134;28;20410;-80
2021/04/14 04:23:15;;;;;;;23.90;13.87;;;;;;;;;;5052618;28;20147;-80
2021/04/14 04:25:41;;;;;;;24.07;12.70;;;;;;;;;;5050835;28;20105;-80
2021/04/14 04:28:06;;;;;;;23.53;12.40;;;;;;;;;;5052292;28;20017;-80
2021/04/14 04:30:32;;;;;;;20.43;11.93;;;;;;;;;;5052223;28;20025;-80
2021/04/14 04:32:58;;;;;;;21.60;12.37;;;;;;;;;;5050916;28;20045;-80
2021/04/14 04:35:24;;;;;;;21.67;11.50;;;;;;;;;;5051521;28;20055;-81
2021/04/14 04:37:49;;;;;;;24.20;12.47;;;;;;;;;;5051028;28;20021;-80
2021/04/14 04:40:15;;;;;;;22.83;12.23;;;;;;;;;;5050914;28;20028;-80
2021/04/14 04:42:40;;;;;;;21.50;13.20;;;;;;;;;;5051948;28;20472;-80
2021/04/14 04:45:06;;;;;;;31.30;13.33;;;;;;;;;;5050867;28;20032;-80
2021/04/14 04:47:31;;;;;;;20.73;11.40;;;;;;;;;;5050578;28;20024;-80
2021/04/14 04:49:57;;;;;;;19.00;11.07;;;;;;;;;;5052035;28;20436;-80
2021/04/14 04:52:22;;;;;;;20.73;11.60;;;;;;;;;;5050667;28;20119;-80
2021/04/14 04:54:47;;;;;;;16.13;9.33;;;;;;;;;;5054449;28;20040;-80
2021/04/14 04:57:12;;;;;;;19.20;9.23;;;;;;;;;;5054512;28;20036;-80
2021/04/14 04:59:37;;;;;;;16.20;8.47;;;;;;;;;;5055338;28;20020;-80
2021/04/14 05:02:03;;;;;;;17.57;8.93;;;;;;;;;;5055389;28;20472;-81
2021/04/14 05:04:28;;;;;;;20.03;9.67;;;;;;;;;;5054373;28;20051;-80
2021/04/14 05:06:53;;;;;;;25.67;8.50;;;;;;;;;;5054363;28;20017;-80
2021/04/14 05:09:19;;;;;;;16.60;8.70;;;;;;;;;;5055658;28;20020;-80
2021/04/14 05:11:45;;;;;;;16.87;8.83;;;;;;;;;;5055616;28;21918;-80
2021/04/14 05:14:10;;;;;;;16.90;8.97;;;;;;;;;;5055567;28;20602;-80
2021/04/14 05:16:36;;;;;;;17.90;9.37;;;;;;;;;;5054011;28;20028;-80
2021/04/14 05:19:01;;;;;;;18.50;9.03;;;;;;;;;;5054321;28;20045;-81
2021/04/14 05:21:26;;;;;;;15.57;9.03;;;;;;;;;;5055244;28;20134;-80
2021/04/14 05:23:53;;;;;;;18.23;9.37;;;;;;;;;;5052574;28;20503;-80
2021/04/14 05:26:18;;;;;;;16.20;9.00;;;;;;;;;;5055352;28;20051;-80
2021/04/14 05:28:44;;;;;;;21.43;9.07;;;;;;;;;;5053665;28;20052;-80
2021/04/14 05:31:10;;;;;;;18.97;8.90;;;;;;;;;;5054600;28;20100;-80
2021/04/14 05:33:35;;;;;;;17.20;9.03;;;;;;;;;;5054691;28;20028;-81
2021/04/14 05:36:00;;;;;;;21.87;9.87;;;;;;;;;;5041601;28;20082;-80
2021/04/14 05:38:26;;;;;;;24.47;9.07;;;;;;;;;;5053727;28;20029;-80
2021/04/14 05:40:52;;;;;;;20.43;9.33;;;;;;;;;;5055209;28;20017;-80
2021/04/14 05:43:19;;;;;;;18.40;8.70;;;;;;;;;;5055080;28;20044;-80
2021/04/14 05:45:45;;;;;;;19.30;9.07;;;;;;;;;;5054905;28;20372;-80
2021/04/14 05:48:11;;;;;;;16.50;9.23;;;;;;;;;;5054932;28;20017;-80
2021/04/14 05:50:36;;;;;;;20.60;12.03;;;;;;;;;;5054185;28;20040;-80
2021/04/14 05:53:01;;;;;;;16.70;9.90;;;;;;;;;;5054512;28;20020;-80
2021/04/14 05:55:27;;;;;;;18.13;9.70;;;;;;;;;;5069544;28;20078;-80
2021/04/14 05:57:52;;;;;;;16.57;8.47;;;;;;;;;;5053779;28;20147;-80
2021/04/14 06:00:18;;;;;;;23.80;8.60;;;;;;;;;;5053680;28;20106;-80
2021/04/14 06:02:43;;;;;;;17.43;7.93;;;;;;;;;;5052681;28;20036;-80
2021/04/14 06:05:10;;;;;;;19.97;9.30;;;;;;;;;;5052489;28;20016;-80
2021/04/14 06:07:35;;;;;;;15.57;9.33;;;;;;;;;;5054820;28;20025;-80
2021/04/14 06:10:00;;;;;;;19.00;9.37;;;;;;;;;;5052593;28;20075;-80
2021/04/14 06:12:25;;;;;;;13.53;8.03;;;;;;;;;;5052960;28;20103;-80
2021/04/14 06:14:53;;;;;;;17.17;8.73;;;;;;;;;;5054331;28;20049;-80
2021/04/14 06:17:18;;;;;;;19.73;9.20;;;;;;;;;;5053167;28;20104;-80
2021/04/14 06:19:44;;;;;;;18.60;9.47;;;;;;;;;;5053789;28;20108;-80
2021/04/14 06:22:09;;;;;;;20.93;9.50;;;;;;;;;;5054025;28;20353;-80
2021/04/14 06:24:34;;;;;;;16.10;9.07;;;;;;;;;;5054374;28;20465;-80
2021/04/14 06:27:05;;;;;;;13.77;8.93;;;;;;;;;;5052315;28;20039;-80
2021/04/14 06:29:30;;;;;;;16.87;9.00;;;;;;;;;;5053997;28;20070;-80
2021/04/14 06:31:56;;;;;;;15.83;9.37;;;;;;;;;;5052601;28;20016;-80
2021/04/14 06:34:23;;;;;;;17.70;9.17;;;;;;;;;;5053222;28;20017;-80
2021/04/14 06:36:50;;;;;;;26.10;12.17;;;;;;;;;;5053705;28;20025;-80
2021/04/14 06:39:16;;;;;;;28.57;13.33;;;;;;;;;;5052744;28;20021;-80
2021/04/14 06:42:21;;;;;;;34.30;13.70;;;;;;;;;;5052393;28;20465;-80
2021/04/14 06:44:57;;;;;;;32.67;14.17;;;;;;;;;;5045763;28;20433;-80
2021/04/14 06:47:41;;;;;;;27.53;12.20;;;;;;;;;;5053581;28;20016;-80
2021/04/14 06:50:10;;;;;;;17.40;9.20;;;;;;;;;;5051836;28;20029;-80
2021/04/14 06:52:43;;;;;;;20.70;8.87;;;;;;;;;;5053389;28;20024;-80
2021/04/14 06:55:19;;;;;;;13.57;7.53;;;;;;;;;;5051316;28;20558;-80
2021/04/14 06:57:50;;;;;;;16.13;7.67;;;;;;;;;;5051031;28;20144;-80
2021/04/14 07:00:31;;;;;;;18.80;7.73;;;;;;;;;;5051943;28;20025;-80
2021/04/14 07:03:02;;;;;;;17.50;7.63;;;;;;;;;;5051732;28;20117;-80
2021/04/14 07:05:32;;;;;;;15.20;7.33;;;;;;;;;;5053097;28;20025;-80
2021/04/14 07:08:00;;;;;;;14.60;6.90;;;;;;;;;;5051639;28;20040;-80
2021/04/14 07:10:28;;;;;;;11.77;6.50;;;;;;;;;;5048966;28;20491;-81
2021/04/14 07:12:54;;;;;;;15.30;6.83;;;;;;;;;;5053098;28;20047;-80
2021/04/14 07:15:20;;;;;;;14.80;7.20;;;;;;;;;;5052632;28;20025;-80
2021/04/14 07:17:54;;;;;;;19.10;7.43;;;;;;;;;;5067448;28;20028;-81
2021/04/14 07:20:26;;;;;;;10.80;6.97;;;;;;;;;;5051495;28;20013;-78
2021/04/14 07:23:08;;;;;;;16.07;6.73;;;;;;;;;;5052324;28;20135;-78
2021/04/14 07:25:40;;;;;;;12.00;6.23;;;;;;;;;;5052765;28;20036;-79
2021/04/14 07:28:24;;;;;;;14.05;6.25;;;;;;;;;;5076872;28;20464;-78
2021/04/14 07:30:58;;;;;;;11.27;6.20;;;;;;;;;;5052239;28;20064;-79
2021/04/14 07:33:23;;;;;;;10.43;5.20;;;;;;;;;;5051580;28;20024;-78
2021/04/14 07:36:03;;;;;;;10.37;4.43;;;;;;;;;;5052736;28;20025;-78
2021/04/14 07:38:37;;;;;;;11.50;4.72;;;;;;;;;;5045821;28;20360;-78
2021/04/14 07:41:21;;;;;;;7.38;4.57;;;;;;;;;;5052632;28;20507;-78
2021/04/14 07:43:57;;;;;;;7.82;4.65;;;;;;;;;;5051581;28;20127;-78
2021/04/14 07:46:23;;;;;;;12.15;5.10;;;;;;;;;;5052383;28;20017;-78
2021/04/14 07:48:50;;;;;;;8.73;5.25;;;;;;;;;;5051443;28;20013;-78
2021/04/14 07:51:18;;;;;;;9.10;4.30;;;;;;;;;;5038738;28;20494;-78
2021/04/14 07:53:54;;;;;;;11.02;5.13;;;;;;;;;;5052753;28;20036;-78
2021/04/14 07:56:20;;;;;;;10.85;5.15;;;;;;;;;;5052127;28;20025;-78
2021/04/14 07:58:47;;;;;;;10.85;5.05;;;;;;;;;;5051464;28;20486;-78
2021/04/14 08:01:22;;;;;;;12.85;5.15;;;;;;;;;;5050015;28;20134;-78
2021/04/14 08:03:48;;;;;;;10.43;4.82;;;;;;;;;;5046949;28;20044;-78
2021/04/14 08:06:27;;;;;;;12.93;4.70;;;;;;;;;;5051574;28;20045;-79
2021/04/14 08:08:53;;;;;;;8.40;4.25;;;;;;;;;;5051426;28;20016;-79
2021/04/14 08:11:29;;;;;;;8.05;4.13;;;;;;;;;;5050339;28;20079;-79
2021/04/14 08:14:05;;;;;;;8.40;4.30;;;;;;;;;;5052052;28;20028;-78
2021/04/14 08:16:34;;;;;;;12.60;5.03;;;;;;;;;;5051226;28;20025;-79
2021/04/14 08:19:02;;;;;;;8.70;4.10;;;;;;;;;;5042197;28;20028;-78
2021/04/14 08:21:29;;;;;;;7.80;3.63;;;;;;;;;;5049723;28;20078;-78
2021/04/14 08:23:56;;;;;;;10.93;4.13;;;;;;;;;;5051659;28;20358;-78
2021/04/14 08:26:21;;;;;;;9.50;4.03;;;;;;;;;;5050444;28;20100;-78
2021/04/14 08:28:48;;;;;;;13.57;4.40;;;;;;;;;;5050927;28;20117;-78
2021/04/14 08:31:13;;;;;;;10.25;3.58;;;;;;;;;;5050969;28;20872;-78
2021/04/14 08:33:39;;;;;;;8.24;3.60;;;;;;;;;;5051863;28;20021;-78
2021/04/14 08:36:11;;;;;;;7.47;3.30;;;;;;;;;;5048223;28;20366;-79
2021/04/14 08:38:37;;;;;;;6.75;3.10;;;;;;;;;;5050354;28;20048;-78
2021/04/14 08:41:03;;;;;;;7.45;3.55;;;;;;;;;;5045071;28;20068;-78
2021/04/14 08:43:32;;;;;;;9.40;3.22;;;;;;;;;;5043501;28;20029;-78
2021/04/14 08:46:08;;;;;;;8.48;3.97;;;;;;;;;;5050950;28;20445;-79
2021/04/14 08:48:33;;;;;;;10.20;3.60;;;;;;;;;;5050722;28;20025;-79
2021/04/14 08:51:03;;;;;;;7.70;3.63;;;;;;;;;;5050951;28;20495;-79
2021/04/14 08:53:31;;;;;;;10.10;3.53;;;;;;;;;;5051918;28;20480;-79
2021/04/14 08:55:56;;;;;;;8.23;3.92;;;;;;;;;;5051463;28;20029;-79
2021/04/14 08:58:22;;;;;;;7.95;3.90;;;;;;;;;;5051973;28;20021;-79
2021/04/14 09:00:48;;;;;;;9.48;3.60;;;;;;;;;;5049571;28;20033;-79
2021/04/14 09:03:18;;;;;;;8.00;4.78;;;;;;;;;;5051065;28;20021;-79
2021/04/14 09:05:44;;;;;;;11.82;4.00;;;;;;;;;;5051569;28;20032;-78
2021/04/14 09:08:12;;;;;;;7.97;4.28;;;;;;;;;;5051072;28;20025;-78
2021/04/14 09:10:39;;;;;;;6.50;3.85;;;;;;;;;;5051130;28;20457;-78
2021/04/14 09:13:06;;;;;;;8.40;4.85;;;;;;;;;;5050837;28;20158;-78
2021/04/14 09:15:31;;;;;;;10.70;4.88;;;;;;;;;;5051155;28;20024;-78
2021/04/14 09:18:01;;;;;;;4.45;1.83;;;;;;;;;;5058876;28;20464;-78
2021/04/14 09:20:35;;;;;;;7.95;4.53;;;;;;;;;;5050842;28;20037;-78
2021/04/14 09:23:00;;;;;;;9.60;4.50;;;;;;;;;;5048026;28;20051;-78
2021/04/14 09:25:46;;;;;;;10.25;4.53;;;;;;;;;;5051335;28;20120;-78
2021/04/14 09:28:23;;;;;;;11.37;3.83;;;;;;;;;;5051432;28;20013;-78
2021/04/14 09:30:54;;;;;;;8.88;3.65;;;;;;;;;;5048940;28;20024;-78
2021/04/14 09:33:22;;;;;;;12.60;4.20;;;;;;;;;;5048381;28;20024;-78
2021/04/14 09:35:50;;;;;;;7.10;3.38;;;;;;;;;;5049830;28;20025;-79
2021/04/14 09:40:46;;;;;;;13.10;4.53;;;;;;;;;;5038004;28;20091;-78
2021/04/14 09:43:26;;;;;;;9.25;4.80;;;;;;;;;;5050398;28;20013;-78
2021/04/14 09:45:56;;;;;;;10.52;5.03;;;;;;;;;;5044394;28;20029;-78
2021/04/14 09:48:22;;;;;;;9.85;4.43;;;;;;;;;;5060930;28;20018;-79
2021/04/14 09:50:47;;;;;;;11.63;5.07;;;;;;;;;;5041330;28;20377;-78
2021/04/14 09:53:24;;;;;;;8.82;4.40;;;;;;;;;;5048034;28;20045;-78
2021/04/14 09:55:49;;;;;;;10.82;5.32;;;;;;;;;;5046350;28;20473;-78
2021/04/14 09:58:28;;;;;;;12.45;5.18;;;;;;;;;;5050000;28;20027;-79
2021/04/14 10:01:03;;;;;;;10.70;5.45;;;;;;;;;;5049172;28;20025;-79
2021/04/14 10:03:32;;;;;;;10.63;6.00;;;;;;;;;;5049888;28;20024;-78
2021/04/14 10:06:03;;;;;;;10.55;4.30;;;;;;;;;;5041663;28;20032;-79
2021/04/14 10:08:29;;;;;;;6.47;3.72;;;;;;;;;;5047827;28;20017;-78
2021/04/14 10:10:54;;;;;;;7.40;5.20;;;;;;;;;;5037101;28;20099;-79
2021/04/14 10:13:19;;;;;;;9.25;5.30;;;;;;;;;;5049919;28;20028;-78
2021/04/14 10:15:46;;;;;;;9.50;4.88;;;;;;;;;;5053656;28;20033;-79
2021/04/14 10:18:23;;;;;;;11.80;5.60;;;;;;;;;;5054191;28;20024;-78
2021/04/14 10:20:49;;;;;;;7.85;4.47;;;;;;;;;;5049722;28;20025;-79
2021/04/14 10:23:16;;;;;;;13.63;6.40;;;;;;;;;;5053947;28;20024;-79
2021/04/14 10:25:42;;;;;;;12.88;5.85;;;;;;;;;;5052200;28;20372;-79
2021/04/14 10:28:17;;;;;;;8.77;3.67;;;;;;;;;;5052104;28;20017;-78
2021/04/14 10:30:44;;;;;;;9.48;5.18;;;;;;;;;;5052781;28;20044;-79
2021/04/14 10:33:13;;;;;;;9.73;5.25;;;;;;;;;;5052815;28;20075;-79
2021/04/14 10:35:39;;;;;;;13.68;5.43;;;;;;;;;;5053030;28;20522;-80
2021/04/14 10:38:05;;;;;;;13.60;5.60;;;;;;;;;;5051385;28;20113;-78
2021/04/14 10:40:35;;;;;;;12.00;5.72;;;;;;;;;;5044124;28;20041;-79
2021/04/14 10:43:19;;;;;;;14.33;6.33;;;;;;;;;;5051293;28;20441;-79
2021/04/14 10:46:01;;;;;;;15.17;6.47;;;;;;;;;;5065944;28;20496;-79
2021/04/14 10:48:27;;;;;;;11.93;6.32;;;;;;;;;;5050784;28;20021;-79
2021/04/14 10:51:03;;;;;;;9.93;2.80;;;;;;;;;;5049037;28;20423;-79
2021/04/14 10:53:31;;;;;;;9.93;5.63;;;;;;;;;;5051438;28;20051;-79
2021/04/14 10:55:56;;;;;;;13.43;6.13;;;;;;;;;;5051853;28;20017;-79
2021/04/14 10:58:22;;;;;;;9.27;5.15;;;;;;;;;;5067424;28;20116;-79
2021/04/14 11:00:49;;;;;;;9.98;4.43;;;;;;;;;;5050257;28;20036;-79
2021/04/14 11:03:16;;;;;;;11.60;5.88;;;;;;;;;;5051650;28;20013;-79
2021/04/14 11:05:50;;;;;;;12.07;5.82;;;;;;;;;;5051519;28;20020;-79
2021/04/14 11:08:15;;;;;;;10.70;5.50;;;;;;;;;;5052175;28;20013;-79
2021/04/14 11:10:41;;;;;;;11.00;5.70;;;;;;;;;;5051425;28;20326;-79
2021/04/14 11:13:11;;;;;;;15.27;5.97;;;;;;;;;;5050927;28;20025;-79
2021/04/14 11:15:41;;;;;;;11.75;6.25;;;;;;;;;;5048601;28;20016;-79
2021/04/14 11:18:07;;;;;;;10.73;5.30;;;;;;;;;;5051264;28;20033;-79
2021/04/14 11:20:51;;;;;;;10.68;6.15;;;;;;;;;;5052535;28;20025;-79
2021/04/14 11:23:19;;;;;;;12.38;6.50;;;;;;;;;;5050587;28;20041;-79
2021/04/14 11:25:45;;;;;;;11.70;6.47;;;;;;;;;;5075866;28;20082;-79
2021/04/14 11:28:11;;;;;;;9.30;5.97;;;;;;;;;;5051746;28;20017;-79
2021/04/14 11:30:45;;;;;;;11.52;5.22;;;;;;;;;;5051522;28;20017;-79
2021/04/14 11:33:13;;;;;;;11.02;6.72;;;;;;;;;;5051406;28;20033;-79
2021/04/14 11:35:50;;;;;;;13.20;6.83;;;;;;;;;;5052192;28;20013;-79
2021/04/14 11:38:33;;;;;;;13.03;7.57;;;;;;;;;;5052249;28;20024;-79
2021/04/14 11:40:59;;;;;;;14.07;6.47;;;;;;;;;;5051166;28;20044;-79
2021/04/14 11:43:24;;;;;;;11.20;6.63;;;;;;;;;;5059634;28;20013;-78
2021/04/14 11:45:57;;;;;;;15.45;6.70;;;;;;;;;;5050121;28;20013;-79
2021/04/14 11:48:29;;;;;;;21.83;7.30;;;;;;;;;;5075008;28;20021;-79
2021/04/14 11:50:54;;;;;;;12.23;6.65;;;;;;;;;;5051452;28;20792;-79
2021/04/14 11:53:22;;;;;;;12.73;6.15;;;;;;;;;;5052155;28;20117;-79
2021/04/14 11:55:47;;;;;;;10.52;6.28;;;;;;;;;;5051969;28;20405;-79
2021/04/14 11:58:31;;;;;;;12.00;5.72;;;;;;;;;;5051492;28;20041;-79
2021/04/14 12:00:56;;;;;;;9.43;5.47;;;;;;;;;;5051119;28;20099;-79
2021/04/14 12:03:33;;;;;;;8.77;4.72;;;;;;;;;;5051018;28;20533;-80
2021/04/14 12:05:59;;;;;;;10.55;5.43;;;;;;;;;;5051687;28;20021;-79
2021/04/14 12:08:24;;;;;;;9.40;4.05;;;;;;;;;;5052323;28;20491;-79
2021/04/14 12:10:50;;;;;;;9.75;5.40;;;;;;;;;;5051046;28;20025;-79
2021/04/14 12:13:15;;;;;;;7.28;4.50;;;;;;;;;;5050754;28;20036;-79
2021/04/14 12:15:41;;;;;;;6.68;4.28;;;;;;;;;;5043530;28;20412;-79
2021/04/14 12:18:06;;;;;;;11.38;5.43;;;;;;;;;;5050897;28;20039;-79
2021/04/14 12:20:31;;;;;;;8.00;5.07;;;;;;;;;;5050593;28;20087;-79
2021/04/14 12:22:56;;;;;;;9.77;6.03;;;;;;;;;;5052298;28;20056;-79
2021/04/14 12:25:22;;;;;;;13.75;5.60;;;;;;;;;;5051680;28;20009;-79
2021/04/14 12:27:47;;;;;;;11.43;5.93;;;;;;;;;;5051842;28;20029;-79
2021/04/14 12:30:13;;;;;;;10.27;6.70;;;;;;;;;;5050405;28;20117;-79
2021/04/14 12:32:38;;;;;;;13.57;6.55;;;;;;;;;;5050361;28;20016;-79
2021/04/14 12:35:04;;;;;;;10.52;4.43;;;;;;;;;;5051652;28;20017;-79
2021/04/14 12:37:29;;;;;;;9.68;4.82;;;;;;;;;;5050373;28;20154;-79
2021/04/14 12:39:55;;;;;;;15.48;5.30;;;;;;;;;;5051881;28;20024;-79
2021/04/14 12:42:20;;;;;;;11.13;6.07;;;;;;;;;;5051726;28;20024;-79
2021/04/14 12:44:48;;;;;;;10.75;5.93;;;;;;;;;;5051819;28;20467;-79
2021/04/14 12:47:14;;;;;;;10.25;6.07;;;;;;;;;;5051333;28;20032;-79
2021/04/14 12:49:42;;;;;;;11.60;5.88;;;;;;;;;;5051691;28;20021;-79
2021/04/14 12:52:16;;;;;;;12.57;6.38;;;;;;;;;;5051757;28;20020;-79
2021/04/14 12:54:41;;;;;;;13.73;7.75;;;;;;;;;;5052005;28;20017;-79
2021/04/14 12:57:07;;;;;;;10.10;6.78;;;;;;;;;;5052077;28;20365;-79
2021/04/14 12:59:37;;;;;;;11.02;7.13;;;;;;;;;;5049595;28;20496;-79
2021/04/14 13:02:04;;;;;;;11.07;7.63;;;;;;;;;;5051473;28;20710;-79
2021/04/14 13:04:36;;;;;;;10.50;6.70;;;;;;;;;;5049851;28;20402;-79
2021/04/14 13:07:05;;;;;;;14.98;5.63;;;;;;;;;;5051357;28;20009;-79
2021/04/14 13:09:33;;;;;;;13.85;7.35;;;;;;;;;;5051578;28;20048;-79
2021/04/14 13:12:08;;;;;;;14.45;7.50;;;;;;;;;;5051028;28;20036;-79
2021/04/14 13:14:33;;;;;;;21.20;8.10;;;;;;;;;;5042937;28;20116;-79
2021/04/14 13:16:58;;;;;;;15.65;8.32;;;;;;;;;;5054123;28;20483;-79
2021/04/14 13:19:27;;;;;;;14.25;8.00;;;;;;;;;;5055063;28;20017;-79
2021/04/14 13:21:55;;;;;;;12.55;7.90;;;;;;;;;;5053357;28;20049;-79
2021/04/14 13:24:29;;;;;;;12.38;7.65;;;;;;;;;;5055558;28;20013;-79
2021/04/14 13:26:57;;;;;;;15.15;6.55;;;;;;;;;;5051134;28;20078;-79
2021/04/14 13:29:26;;;;;;;12.35;7.43;;;;;;;;;;5050638;28;20021;-79
2021/04/14 13:32:10;;;;;;;14.35;6.20;;;;;;;;;;5053415;28;20467;-79
2021/04/14 13:34:49;;;;;;;11.95;7.03;;;;;;;;;;5055122;28;20017;-79
2021/04/14 13:37:25;;;;;;;10.85;6.70;;;;;;;;;;5054379;28;20032;-79
2021/04/14 13:39:53;;;;;;;11.02;6.20;;;;;;;;;;5054596;28;20024;-79
2021/04/14 13:42:22;;;;;;;11.90;6.72;;;;;;;;;;5054826;28;20017;-79
2021/04/14 13:44:53;;;;;;;10.90;6.28;;;;;;;;;;5054918;28;20021;-79
2021/04/14 13:47:28;;;;;;;10.88;6.80;;;;;;;;;;5054349;28;20021;-79
2021/04/14 13:50:00;;;;;;;12.38;7.50;;;;;;;;;;5083270;28;20478;-79
2021/04/14 13:52:27;;;;;;;10.65;5.95;;;;;;;;;;5053052;28;20427;-80
2021/04/14 13:54:56;;;;;;;11.05;6.32;;;;;;;;;;5052600;28;20029;-79
2021/04/14 13:57:24;;;;;;;10.25;7.03;;;;;;;;;;5052352;28;20017;-79
2021/04/14 13:59:53;;;;;;;10.57;7.55;;;;;;;;;;5050409;28;20029;-79
2021/04/14 14:02:25;;;;;;;12.25;6.30;;;;;;;;;;5051655;28;20147;-79
2021/04/14 14:04:51;;;;;;;11.80;6.65;;;;;;;;;;5052072;28;20028;-79
2021/04/14 14:07:29;;;;;;;12.23;6.53;;;;;;;;;;5052789;28;20021;-80
2021/04/14 14:09:59;;;;;;;11.30;7.15;;;;;;;;;;5051723;28;20025;-80
2021/04/14 14:12:26;;;;;;;9.75;5.32;;;;;;;;;;5050066;28;20495;-80
2021/04/14 14:14:54;;;;;;;14.23;6.70;;;;;;;;;;5052462;28;20035;-80
2021/04/14 14:17:42;;;;;;;12.18;7.65;;;;;;;;;;5054188;28;20110;-80
2021/04/14 14:20:07;;;;;;;14.95;8.07;;;;;;;;;;5050457;28;20029;-79
2021/04/14 14:22:34;;;;;;;12.68;8.15;;;;;;;;;;5053351;28;20017;-79
2021/04/14 14:25:06;;;;;;;10.20;6.57;;;;;;;;;;5053011;28;20029;-80
2021/04/14 14:27:32;;;;;;;17.15;7.20;;;;;;;;;;5052759;28;20024;-79
2021/04/14 14:29:57;;;;;;;10.20;7.20;;;;;;;;;;5053106;28;20370;-79
2021/04/14 14:32:23;;;;;;;13.95;7.40;;;;;;;;;;5053697;28;20021;-79
2021/04/14 14:34:50;;;;;;;14.13;6.65;;;;;;;;;;5052617;28;20021;-79